Time;durP1;ratioP1;P1;durP2;ratioP2;P2;SDS_P1;SDS_P2;PMS_P1;PMS_P2;Temp;Humidity;BMP_temperature;BMP_pressure;BME280_temperature;BME280_humidity;BME280_pressure;Samples;Min_cycle;Max_cycle;Signal;HPM_P1;HPM_P2
2024/03/10 00:02:05;;;;;;;1.85;1.40;;;;;;;;;;5052336;28;20460;-81
2024/03/10 00:04:31;;;;;;;1.40;1.27;;;;;;;;;;5052263;28;20387;-81
2024/03/10 00:06:58;;;;;;;1.52;1.30;;;;;;;;;;5052382;28;20456;-80
2024/03/10 00:09:24;;;;;;;1.20;1.05;;;;;;;;;;5052333;28;20373;-80
2024/03/10 00:11:50;;;;;;;1.20;1.00;;;;;;;;;;5052359;28;20450;-80
2024/03/10 00:14:17;;;;;;;0.90;0.80;;;;;;;;;;5053160;28;20388;-80
2024/03/10 00:16:43;;;;;;;0.98;0.90;;;;;;;;;;5056077;28;20389;-80
2024/03/10 00:19:11;;;;;;;1.00;0.90;;;;;;;;;;5056157;28;20934;-80
2024/03/10 00:21:37;;;;;;;1.13;0.80;;;;;;;;;;5055763;28;20385;-80
2024/03/10 00:24:03;;;;;;;0.95;0.80;;;;;;;;;;5056049;28;20413;-80
2024/03/10 00:26:30;;;;;;;0.95;0.85;;;;;;;;;;5056055;28;20419;-80
2024/03/10 00:28:56;;;;;;;2.00;1.00;;;;;;;;;;5055867;28;20412;-80
2024/03/10 00:31:22;;;;;;;1.77;0.90;;;;;;;;;;5056055;28;20381;-80
2024/03/10 00:33:48;;;;;;;1.08;0.93;;;;;;;;;;5055938;28;20373;-80
2024/03/10 00:36:14;;;;;;;0.82;0.80;;;;;;;;;;5056177;28;20873;-80
2024/03/10 00:38:40;;;;;;;0.98;0.80;;;;;;;;;;5056309;28;20488;-81
2024/03/10 00:41:06;;;;;;;1.33;0.90;;;;;;;;;;5056070;28;20439;-80
2024/03/10 00:43:33;;;;;;;0.80;0.80;;;;;;;;;;5055549;28;20396;-80
2024/03/10 00:45:59;;;;;;;1.05;0.95;;;;;;;;;;5056017;28;20471;-81
2024/03/10 00:48:25;;;;;;;1.50;0.83;;;;;;;;;;5055435;28;20784;-80
2024/03/10 00:50:51;;;;;;;1.80;0.80;;;;;;;;;;5055866;28;20442;-80
2024/03/10 00:53:18;;;;;;;0.95;0.85;;;;;;;;;;5055486;28;20418;-80
2024/03/10 00:55:44;;;;;;;1.15;0.85;;;;;;;;;;5055154;28;20409;-80
2024/03/10 00:58:10;;;;;;;1.30;0.88;;;;;;;;;;5052883;28;20464;-80
2024/03/10 01:00:36;;;;;;;1.15;1.00;;;;;;;;;;5055467;28;20381;-80
2024/03/10 01:03:05;;;;;;;0.90;0.75;;;;;;;;;;5055381;28;20464;-80
2024/03/10 01:05:31;;;;;;;0.97;0.80;;;;;;;;;;5054065;28;20385;-80
2024/03/10 01:07:57;;;;;;;1.05;0.90;;;;;;;;;;5055254;28;20404;-81
2024/03/10 01:10:23;;;;;;;1.10;0.90;;;;;;;;;;5055657;28;20721;-80
2024/03/10 01:12:49;;;;;;;1.13;0.85;;;;;;;;;;5055528;28;20381;-80
2024/03/10 01:15:15;;;;;;;1.07;0.80;;;;;;;;;;5055900;28;20428;-81
2024/03/10 01:17:41;;;;;;;0.95;0.73;;;;;;;;;;5055399;28;20408;-81
2024/03/10 01:20:08;;;;;;;0.70;0.70;;;;;;;;;;5055842;28;20836;-80
2024/03/10 01:22:34;;;;;;;1.45;0.70;;;;;;;;;;5055352;28;20389;-80
2024/03/10 01:25:00;;;;;;;1.00;0.77;;;;;;;;;;5055077;28;20507;-80
2024/03/10 01:27:26;;;;;;;0.93;0.80;;;;;;;;;;5054418;28;20901;-80
2024/03/10 01:29:52;;;;;;;0.80;0.80;;;;;;;;;;5054764;28;20382;-80
2024/03/10 01:32:18;;;;;;;0.95;0.70;;;;;;;;;;5054797;28;20739;-80
2024/03/10 01:34:44;;;;;;;1.05;0.70;;;;;;;;;;5054658;28;20463;-80
2024/03/10 01:37:10;;;;;;;1.40;0.80;;;;;;;;;;5054811;28;20377;-80
2024/03/10 01:39:36;;;;;;;0.80;0.80;;;;;;;;;;5054684;28;20472;-80
2024/03/10 01:42:05;;;;;;;1.38;0.70;;;;;;;;;;5054709;28;20460;-80
2024/03/10 01:44:32;;;;;;;0.70;0.63;;;;;;;;;;5054357;28;20385;-80
2024/03/10 01:46:58;;;;;;;0.80;0.70;;;;;;;;;;5054730;28;20405;-80
2024/03/10 01:49:26;;;;;;;0.70;0.63;;;;;;;;;;5054527;28;20469;-80
2024/03/10 01:51:53;;;;;;;0.70;0.60;;;;;;;;;;5054875;28;20385;-80
2024/03/10 01:54:19;;;;;;;0.85;0.75;;;;;;;;;;5054475;28;20374;-81
2024/03/10 01:56:45;;;;;;;1.05;0.70;;;;;;;;;;5054616;28;20381;-80
2024/03/10 01:59:12;;;;;;;0.60;0.60;;;;;;;;;;5054495;28;20385;-80
2024/03/10 02:01:38;;;;;;;0.83;0.57;;;;;;;;;;5054349;28;20863;-80
2024/03/10 02:04:08;;;;;;;1.48;0.55;;;;;;;;;;5054149;28;20389;-80
2024/03/10 02:06:35;;;;;;;0.47;0.47;;;;;;;;;;5054122;28;20404;-80
2024/03/10 02:09:02;;;;;;;0.65;0.65;;;;;;;;;;5054113;28;20452;-80
2024/03/10 02:11:29;;;;;;;0.60;0.60;;;;;;;;;;5054279;28;20377;-80
2024/03/10 02:13:55;;;;;;;0.68;0.68;;;;;;;;;;5053755;28;20381;-80
2024/03/10 02:16:23;;;;;;;0.70;0.68;;;;;;;;;;5054231;28;20493;-80
2024/03/10 02:18:51;;;;;;;0.68;0.68;;;;;;;;;;5053747;28;20503;-80
2024/03/10 02:21:21;;;;;;;0.70;0.70;;;;;;;;;;5039743;28;20416;-80
2024/03/10 02:23:50;;;;;;;0.80;0.80;;;;;;;;;;5054037;28;20439;-80
2024/03/10 02:26:16;;;;;;;1.58;0.77;;;;;;;;;;5053832;28;20401;-80
2024/03/10 02:29:14;;;;;;;0.80;0.73;;;;;;;;;;5054057;28;20400;-80
2024/03/10 02:48:09;;;;;;;1.23;0.80;;;;;;;;;;5053508;28;20420;-80
2024/03/10 02:50:35;;;;;;;0.73;0.50;;;;;;;;;;5053140;28;20454;-80
2024/03/10 02:53:01;;;;;;;0.95;0.60;;;;;;;;;;5040121;28;20868;-80
2024/03/10 02:55:27;;;;;;;0.70;0.60;;;;;;;;;;5048868;28;20472;-80
2024/03/10 02:57:53;;;;;;;0.60;0.60;;;;;;;;;;5045702;28;20678;-80
2024/03/10 03:00:19;;;;;;;0.65;0.60;;;;;;;;;;5052036;28;20464;-80
2024/03/10 03:02:45;;;;;;;0.80;0.60;;;;;;;;;;5051920;28;20394;-80
2024/03/10 03:05:11;;;;;;;0.80;0.80;;;;;;;;;;5053676;28;20393;-80
2024/03/10 03:07:37;;;;;;;0.65;0.63;;;;;;;;;;5053471;28;20410;-80
2024/03/10 03:10:05;;;;;;;0.83;0.70;;;;;;;;;;5053225;28;20462;-80
2024/03/10 03:12:31;;;;;;;1.13;0.68;;;;;;;;;;5053110;28;20403;-80
2024/03/10 03:14:58;;;;;;;0.88;0.70;;;;;;;;;;5043253;28;20841;-80
2024/03/10 03:17:24;;;;;;;1.48;0.70;;;;;;;;;;5052905;28;20466;-80
2024/03/10 03:19:50;;;;;;;0.90;0.63;;;;;;;;;;5053215;28;20471;-80
2024/03/10 03:22:16;;;;;;;0.70;0.60;;;;;;;;;;5053388;28;20382;-80
2024/03/10 03:24:42;;;;;;;1.00;0.77;;;;;;;;;;5053143;28;20381;-80
2024/03/10 03:27:08;;;;;;;0.85;0.70;;;;;;;;;;5052656;28;20512;-80
2024/03/10 03:29:35;;;;;;;1.10;0.60;;;;;;;;;;5052557;28;20377;-80
2024/03/10 03:32:01;;;;;;;1.13;0.60;;;;;;;;;;5052522;28;20863;-80
2024/03/10 03:34:27;;;;;;;1.20;0.60;;;;;;;;;;5052685;28;20411;-80
2024/03/10 03:36:54;;;;;;;0.40;0.40;;;;;;;;;;5052420;28;20389;-80
2024/03/10 03:39:20;;;;;;;0.80;0.50;;;;;;;;;;5052414;28;20380;-80
2024/03/10 03:41:45;;;;;;;0.77;0.60;;;;;;;;;;5052651;28;20532;-80
2024/03/10 03:44:12;;;;;;;0.85;0.50;;;;;;;;;;5052906;28;20385;-80
2024/03/10 03:46:38;;;;;;;0.50;0.50;;;;;;;;;;5052318;28;20483;-80
2024/03/10 03:49:04;;;;;;;0.98;0.63;;;;;;;;;;5051711;28;20767;-80
2024/03/10 03:51:30;;;;;;;0.60;0.60;;;;;;;;;;5052787;28;20405;-80
2024/03/10 03:53:56;;;;;;;0.82;0.65;;;;;;;;;;5052562;28;20377;-80
2024/03/10 03:56:22;;;;;;;0.65;0.60;;;;;;;;;;5052630;28;20392;-80
2024/03/10 03:58:49;;;;;;;0.68;0.60;;;;;;;;;;5052380;28;20420;-80
2024/03/10 04:01:16;;;;;;;0.85;0.57;;;;;;;;;;5052462;28;21001;-80
2024/03/10 04:03:42;;;;;;;0.60;0.50;;;;;;;;;;5052610;28;20400;-80
2024/03/10 04:06:08;;;;;;;0.65;0.60;;;;;;;;;;5052188;28;20385;-80
2024/03/10 04:08:34;;;;;;;0.50;0.40;;;;;;;;;;5052228;28;20373;-81
2024/03/10 04:11:00;;;;;;;0.73;0.60;;;;;;;;;;5051773;28;20388;-80
2024/03/10 04:13:26;;;;;;;0.63;0.52;;;;;;;;;;5052069;28;20378;-81
2024/03/10 04:15:52;;;;;;;1.50;0.55;;;;;;;;;;5052274;28;20388;-80
2024/03/10 04:18:18;;;;;;;1.08;0.57;;;;;;;;;;5052571;28;20377;-80
2024/03/10 04:20:47;;;;;;;0.95;0.60;;;;;;;;;;5052497;28;20388;-80
2024/03/10 04:23:13;;;;;;;0.73;0.73;;;;;;;;;;5052560;28;20400;-81
2024/03/10 04:25:40;;;;;;;0.60;0.50;;;;;;;;;;5052276;28;20445;-80
2024/03/10 04:28:06;;;;;;;1.08;0.70;;;;;;;;;;5052099;28;20408;-80
2024/03/10 04:30:34;;;;;;;0.90;0.70;;;;;;;;;;5052403;28;20744;-80
2024/03/10 04:33:00;;;;;;;0.70;0.68;;;;;;;;;;5051714;28;20373;-80
2024/03/10 04:35:26;;;;;;;0.70;0.70;;;;;;;;;;5052239;28;20433;-81
2024/03/10 04:37:53;;;;;;;1.25;0.70;;;;;;;;;;5052089;28;20465;-80
2024/03/10 04:40:19;;;;;;;0.80;0.60;;;;;;;;;;5051900;28;20381;-80
2024/03/10 04:42:45;;;;;;;0.95;0.80;;;;;;;;;;5051949;28;20393;-80
2024/03/10 04:45:11;;;;;;;0.77;0.70;;;;;;;;;;5050011;28;20405;-80
2024/03/10 04:47:40;;;;;;;0.60;0.60;;;;;;;;;;5047173;28;20957;-80
2024/03/10 04:50:08;;;;;;;0.85;0.85;;;;;;;;;;5051772;28;20501;-81
2024/03/10 04:52:34;;;;;;;1.85;0.90;;;;;;;;;;5051937;28;20376;-80
2024/03/10 04:55:01;;;;;;;1.10;0.90;;;;;;;;;;5046590;28;20454;-80
2024/03/10 04:57:27;;;;;;;1.67;1.10;;;;;;;;;;5051613;28;20381;-80
2024/03/10 04:59:53;;;;;;;0.70;0.70;;;;;;;;;;5052492;28;20442;-80
2024/03/10 05:02:19;;;;;;;1.10;1.00;;;;;;;;;;5055677;28;20408;-81
2024/03/10 05:04:48;;;;;;;1.20;0.80;;;;;;;;;;5055661;28;20381;-80
2024/03/10 05:07:14;;;;;;;1.30;1.07;;;;;;;;;;5054963;28;20885;-81
2024/03/10 05:09:40;;;;;;;1.10;0.90;;;;;;;;;;5055255;28;20456;-80
2024/03/10 05:12:08;;;;;;;0.95;0.93;;;;;;;;;;5055818;28;20680;-80
2024/03/10 05:14:36;;;;;;;1.17;0.97;;;;;;;;;;5055788;28;20370;-80
2024/03/10 05:17:02;;;;;;;2.60;1.17;;;;;;;;;;5055262;28;20392;-81
2024/03/10 05:19:29;;;;;;;1.20;1.00;;;;;;;;;;5055576;28;20377;-81
2024/03/10 05:21:55;;;;;;;1.30;0.95;;;;;;;;;;5056571;28;20443;-81
2024/03/10 05:24:22;;;;;;;2.45;1.20;;;;;;;;;;5056209;28;20378;-81
2024/03/10 05:26:48;;;;;;;1.10;1.00;;;;;;;;;;5056120;28;20417;-81
2024/03/10 05:29:14;;;;;;;1.00;0.90;;;;;;;;;;5055848;28;20393;-81
2024/03/10 05:31:40;;;;;;;1.38;1.02;;;;;;;;;;5056073;28;20400;-81
2024/03/10 05:34:06;;;;;;;1.20;1.10;;;;;;;;;;5055861;28;20383;-81
2024/03/10 05:36:33;;;;;;;1.20;1.10;;;;;;;;;;5055774;28;20385;-81
2024/03/10 05:38:59;;;;;;;1.50;1.20;;;;;;;;;;5054994;28;20432;-81
2024/03/10 05:41:25;;;;;;;1.25;1.15;;;;;;;;;;5054624;28;20434;-80
2024/03/10 05:43:51;;;;;;;1.40;1.30;;;;;;;;;;5055996;28;20468;-80
2024/03/10 05:46:17;;;;;;;1.52;1.30;;;;;;;;;;5054853;28;20906;-81
2024/03/10 05:48:43;;;;;;;1.60;1.50;;;;;;;;;;5054854;28;20386;-81
2024/03/10 05:51:12;;;;;;;1.85;1.40;;;;;;;;;;5055059;28;20370;-81
2024/03/10 05:53:38;;;;;;;1.80;1.70;;;;;;;;;;5054510;28;20381;-80
2024/03/10 05:56:05;;;;;;;2.13;1.92;;;;;;;;;;5054483;28;20377;-81
2024/03/10 05:58:40;;;;;;;1.80;1.70;;;;;;;;;;5054599;28;20840;-81
2024/03/10 06:01:07;;;;;;;1.95;1.70;;;;;;;;;;5054435;28;20413;-81
2024/03/10 06:03:33;;;;;;;1.98;1.77;;;;;;;;;;5054371;28;20384;-81
2024/03/10 06:05:59;;;;;;;1.70;1.53;;;;;;;;;;5055014;28;20457;-81
2024/03/10 06:08:25;;;;;;;3.38;1.67;;;;;;;;;;5055128;28;20409;-80
2024/03/10 06:10:51;;;;;;;1.80;1.70;;;;;;;;;;5054496;28;20384;-80
2024/03/10 06:13:18;;;;;;;2.00;1.90;;;;;;;;;;5053650;28;20380;-80
2024/03/10 06:15:43;;;;;;;2.03;1.70;;;;;;;;;;5054603;28;20483;-81
2024/03/10 06:18:18;;;;;;;2.28;2.08;;;;;;;;;;5054449;28;20382;-81
2024/03/10 06:26:13;;;;;;;2.10;1.90;;;;;;;;;;5053824;28;20724;-80
2024/03/10 06:28:39;;;;;;;2.30;2.10;;;;;;;;;;5053842;28;20385;-80
2024/03/10 06:31:05;;;;;;;2.28;1.83;;;;;;;;;;5054322;28;20389;-80
2024/03/10 06:33:34;;;;;;;3.15;2.85;;;;;;;;;;5053417;28;20427;-80
2024/03/10 06:36:00;;;;;;;3.17;2.88;;;;;;;;;;5054098;28;20823;-80
2024/03/10 06:38:26;;;;;;;3.55;3.25;;;;;;;;;;5053610;28;20373;-80
2024/03/10 06:40:52;;;;;;;3.33;3.03;;;;;;;;;;5054520;28;20701;-80
2024/03/10 06:43:17;;;;;;;4.40;3.55;;;;;;;;;;5054148;28;20389;-80
2024/03/10 06:45:44;;;;;;;3.10;2.80;;;;;;;;;;5050725;28;20413;-80
2024/03/10 06:48:13;;;;;;;3.70;3.00;;;;;;;;;;5053362;28;20428;-80
2024/03/10 06:50:39;;;;;;;2.80;2.60;;;;;;;;;;5053843;28;20455;-80
2024/03/10 06:53:05;;;;;;;2.42;2.22;;;;;;;;;;5053926;28;20427;-80
2024/03/10 06:55:31;;;;;;;2.70;2.50;;;;;;;;;;5054237;28;20377;-80
2024/03/10 06:57:57;;;;;;;2.50;2.30;;;;;;;;;;5054575;28;20867;-80
2024/03/10 07:00:24;;;;;;;2.47;2.27;;;;;;;;;;5054847;28;20389;-80
2024/03/10 07:02:51;;;;;;;2.07;1.93;;;;;;;;;;5053597;28;20905;-80
2024/03/10 07:05:18;;;;;;;2.60;2.40;;;;;;;;;;5054048;28;20381;-81
2024/03/10 07:07:44;;;;;;;2.63;2.43;;;;;;;;;;5053719;28;20926;-80
2024/03/10 07:10:10;;;;;;;4.38;2.35;;;;;;;;;;5054905;28;20377;-80
2024/03/10 07:12:36;;;;;;;3.03;2.30;;;;;;;;;;5054393;28;20375;-80
2024/03/10 07:15:03;;;;;;;2.60;2.40;;;;;;;;;;5053881;28;20708;-80
2024/03/10 07:17:29;;;;;;;2.88;2.55;;;;;;;;;;5052891;28;20417;-80
2024/03/10 07:19:55;;;;;;;2.80;2.50;;;;;;;;;;5054303;28;20433;-79
2024/03/10 07:22:21;;;;;;;2.50;2.30;;;;;;;;;;5054262;28;20386;-79
2024/03/10 07:24:46;;;;;;;3.40;3.10;;;;;;;;;;5053271;28;20382;-78
2024/03/10 07:27:12;;;;;;;4.30;3.90;;;;;;;;;;5053662;28;20770;-79
2024/03/10 07:29:39;;;;;;;3.72;3.42;;;;;;;;;;5055008;28;20378;-79
2024/03/10 07:32:05;;;;;;;3.47;3.17;;;;;;;;;;5053471;28;20401;-78
2024/03/10 07:34:32;;;;;;;2.60;2.40;;;;;;;;;;5052879;28;20393;-78
2024/03/10 07:36:59;;;;;;;2.45;2.20;;;;;;;;;;5052803;28;20464;-78
2024/03/10 07:39:26;;;;;;;2.67;2.47;;;;;;;;;;5051714;28;20451;-78
2024/03/10 07:41:52;;;;;;;2.70;2.50;;;;;;;;;;5053000;28;20382;-78
2024/03/10 07:44:18;;;;;;;2.50;2.30;;;;;;;;;;5053366;28;20799;-78
2024/03/10 07:46:44;;;;;;;3.55;3.25;;;;;;;;;;5053283;28;20455;-78
2024/03/10 07:49:11;;;;;;;3.92;3.50;;;;;;;;;;5053401;28;20397;-78
2024/03/10 07:51:37;;;;;;;2.90;2.70;;;;;;;;;;5051602;28;20495;-78
2024/03/10 07:54:04;;;;;;;3.03;2.72;;;;;;;;;;5039820;28;20388;-78
2024/03/10 07:56:30;;;;;;;2.53;2.33;;;;;;;;;;5053243;28;20436;-78
2024/03/10 07:58:56;;;;;;;2.60;1.90;;;;;;;;;;5053570;28;20412;-79
2024/03/10 08:01:22;;;;;;;2.20;2.00;;;;;;;;;;5053522;28;20447;-78
2024/03/10 08:03:49;;;;;;;2.10;1.83;;;;;;;;;;5053154;28;20794;-79
2024/03/10 08:06:15;;;;;;;2.83;1.80;;;;;;;;;;5054542;28;20820;-78
2024/03/10 08:08:41;;;;;;;2.05;1.85;;;;;;;;;;5054730;28;20396;-78
2024/03/10 08:11:08;;;;;;;2.20;2.00;;;;;;;;;;5053582;28;20492;-78
2024/03/10 08:13:35;;;;;;;1.80;1.70;;;;;;;;;;5053091;28;20871;-78
2024/03/10 08:16:01;;;;;;;2.13;1.95;;;;;;;;;;5052900;28;20409;-78
2024/03/10 08:18:27;;;;;;;2.50;2.10;;;;;;;;;;5052061;28;20424;-78
2024/03/10 08:20:54;;;;;;;2.10;1.90;;;;;;;;;;5052570;28;20390;-78
2024/03/10 08:23:22;;;;;;;2.20;1.80;;;;;;;;;;5052598;28;20378;-78
2024/03/10 08:25:49;;;;;;;1.80;1.70;;;;;;;;;;5053225;28;20397;-79
2024/03/10 08:28:15;;;;;;;1.83;1.70;;;;;;;;;;5051068;28;20890;-78
2024/03/10 08:30:41;;;;;;;6.32;4.28;;;;;;;;;;5053602;28;20384;-79
2024/03/10 08:33:07;;;;;;;3.38;2.90;;;;;;;;;;5053164;28;20890;-78
2024/03/10 08:35:33;;;;;;;2.03;1.88;;;;;;;;;;5054822;28;20381;-78
2024/03/10 08:37:59;;;;;;;1.80;1.60;;;;;;;;;;5056953;28;20389;-79
2024/03/10 08:40:26;;;;;;;1.83;1.73;;;;;;;;;;5056676;28;20420;-78
2024/03/10 08:42:52;;;;;;;1.75;1.65;;;;;;;;;;5057225;28;20392;-78
2024/03/10 08:45:19;;;;;;;1.90;1.80;;;;;;;;;;5057141;28;20408;-78
2024/03/10 08:47:46;;;;;;;2.20;1.50;;;;;;;;;;5056645;28;20437;-78
2024/03/10 08:50:12;;;;;;;1.77;1.67;;;;;;;;;;5045921;28;20425;-78
2024/03/10 08:52:39;;;;;;;1.70;1.60;;;;;;;;;;5056952;28;20468;-78
2024/03/10 08:55:06;;;;;;;2.00;1.85;;;;;;;;;;5056832;28;20374;-78
2024/03/10 08:57:35;;;;;;;1.77;1.67;;;;;;;;;;5056638;28;20382;-78
2024/03/10 09:00:02;;;;;;;1.98;1.83;;;;;;;;;;5055401;28;20390;-78
2024/03/10 09:02:28;;;;;;;2.30;2.00;;;;;;;;;;5057052;28;20798;-78
2024/03/10 09:04:54;;;;;;;2.30;1.70;;;;;;;;;;5055458;28;20397;-79
2024/03/10 09:07:25;;;;;;;2.40;1.80;;;;;;;;;;5055581;28;20417;-79
2024/03/10 09:09:51;;;;;;;1.80;1.57;;;;;;;;;;5047254;28;20389;-79
2024/03/10 09:12:17;;;;;;;1.77;1.20;;;;;;;;;;5056590;28;20831;-79
2024/03/10 09:14:43;;;;;;;1.70;1.60;;;;;;;;;;5056024;28;20767;-78
2024/03/10 09:17:10;;;;;;;2.20;1.88;;;;;;;;;;5057035;28;20911;-79
2024/03/10 09:19:36;;;;;;;1.83;1.70;;;;;;;;;;5056831;28;20416;-79
2024/03/10 09:22:02;;;;;;;1.90;1.80;;;;;;;;;;5055582;28;20386;-79
2024/03/10 09:24:28;;;;;;;1.53;1.33;;;;;;;;;;5056470;28;20442;-78
2024/03/10 09:26:56;;;;;;;2.30;1.55;;;;;;;;;;5056077;28;20417;-78
2024/03/10 09:29:26;;;;;;;1.65;1.30;;;;;;;;;;5056630;28;20385;-78
2024/03/10 09:31:52;;;;;;;1.60;1.50;;;;;;;;;;5055973;28;20378;-78
2024/03/10 09:34:18;;;;;;;1.65;1.33;;;;;;;;;;5056498;28;20441;-79
2024/03/10 09:36:44;;;;;;;1.35;1.25;;;;;;;;;;5056572;28;20384;-78
2024/03/10 09:39:12;;;;;;;1.75;1.42;;;;;;;;;;5056634;28;20385;-78
2024/03/10 09:41:41;;;;;;;1.90;1.70;;;;;;;;;;5056337;28;20388;-79
2024/03/10 09:44:08;;;;;;;1.50;1.35;;;;;;;;;;5055361;28;20389;-79
2024/03/10 09:46:34;;;;;;;1.77;1.42;;;;;;;;;;5053794;28;20409;-78
2024/03/10 09:49:00;;;;;;;1.40;1.30;;;;;;;;;;5055947;28;20405;-79
2024/03/10 09:51:27;;;;;;;5.50;5.00;;;;;;;;;;5055903;28;20449;-79
2024/03/10 09:53:54;;;;;;;3.33;2.05;;;;;;;;;;5056159;28;20377;-79
2024/03/10 09:56:20;;;;;;;8.45;3.33;;;;;;;;;;5055643;28;20377;-79
2024/03/10 09:58:56;;;;;;;1.50;1.20;;;;;;;;;;5055687;28;20454;-78
2024/03/10 10:01:24;;;;;;;1.73;1.63;;;;;;;;;;5056353;28;20704;-78
2024/03/10 10:03:52;;;;;;;2.30;2.00;;;;;;;;;;5054448;28;20856;-79
2024/03/10 10:06:18;;;;;;;1.85;1.75;;;;;;;;;;5055835;28;20793;-79
2024/03/10 10:08:45;;;;;;;1.98;1.80;;;;;;;;;;5055575;28;20389;-79
2024/03/10 10:11:13;;;;;;;2.60;2.20;;;;;;;;;;5055322;28;20378;-80
2024/03/10 10:13:39;;;;;;;1.60;1.50;;;;;;;;;;5055403;28;20859;-79
2024/03/10 10:16:08;;;;;;;1.60;1.40;;;;;;;;;;5054370;28;20393;-79
2024/03/10 10:18:36;;;;;;;1.38;1.20;;;;;;;;;;5050448;28;20918;-79
2024/03/10 10:21:10;;;;;;;1.50;1.20;;;;;;;;;;5049718;28;20467;-79
2024/03/10 10:23:36;;;;;;;1.33;1.23;;;;;;;;;;5049671;28;20380;-79
2024/03/10 10:26:12;;;;;;;1.80;1.30;;;;;;;;;;5054801;28;21153;-79
2024/03/10 10:28:42;;;;;;;1.30;1.20;;;;;;;;;;5054311;28;20384;-79
2024/03/10 10:31:18;;;;;;;1.52;1.42;;;;;;;;;;5054963;28;20389;-79
2024/03/10 10:33:45;;;;;;;1.80;1.30;;;;;;;;;;5055289;28;20735;-79
2024/03/10 10:36:11;;;;;;;1.63;1.33;;;;;;;;;;5055424;28;20374;-79
2024/03/10 10:38:39;;;;;;;1.60;1.30;;;;;;;;;;5055209;28;20373;-79
2024/03/10 10:41:07;;;;;;;1.50;1.40;;;;;;;;;;5055400;28;20409;-80
2024/03/10 10:43:39;;;;;;;1.48;1.38;;;;;;;;;;5053925;28;20417;-79
2024/03/10 10:46:06;;;;;;;2.20;1.17;;;;;;;;;;5052108;28;20397;-79
2024/03/10 10:48:36;;;;;;;2.03;1.10;;;;;;;;;;5054925;28;20413;-79
2024/03/10 10:51:02;;;;;;;1.20;1.10;;;;;;;;;;5054945;28;20397;-80
2024/03/10 10:53:29;;;;;;;1.73;1.20;;;;;;;;;;5052039;28;20711;-79
2024/03/10 10:55:56;;;;;;;2.45;1.20;;;;;;;;;;5051420;28;20378;-79
2024/03/10 10:58:23;;;;;;;1.58;1.48;;;;;;;;;;5053983;28;20378;-79
2024/03/10 11:00:50;;;;;;;1.50;1.40;;;;;;;;;;5054769;28;20424;-79
2024/03/10 11:03:24;;;;;;;2.25;1.45;;;;;;;;;;5055086;28;20384;-79
2024/03/10 11:06:02;;;;;;;2.75;1.65;;;;;;;;;;5051260;28;20420;-80
2024/03/10 11:08:29;;;;;;;1.35;1.25;;;;;;;;;;5044708;28;20404;-79
2024/03/10 11:10:55;;;;;;;1.17;1.08;;;;;;;;;;5049414;28;20389;-79
2024/03/10 11:13:22;;;;;;;1.50;1.40;;;;;;;;;;5053586;28;20385;-80
2024/03/10 11:16:04;;;;;;;1.30;1.20;;;;;;;;;;5051273;28;20487;-80
2024/03/10 11:18:32;;;;;;;1.15;1.05;;;;;;;;;;5054288;28;20827;-80
2024/03/10 11:20:59;;;;;;;1.90;1.00;;;;;;;;;;5054832;28;20393;-80
2024/03/10 11:23:38;;;;;;;1.25;1.15;;;;;;;;;;5053233;28;20401;-80
2024/03/10 11:26:08;;;;;;;1.10;0.90;;;;;;;;;;5053961;28;20885;-80
2024/03/10 11:28:50;;;;;;;1.40;1.17;;;;;;;;;;5054783;28;20864;-80
2024/03/10 11:31:20;;;;;;;2.30;1.40;;;;;;;;;;5054228;28;20386;-80
2024/03/10 11:33:47;;;;;;;2.33;1.60;;;;;;;;;;5054361;28;20374;-80
2024/03/10 11:36:13;;;;;;;1.30;1.20;;;;;;;;;;5054263;28;20393;-80
2024/03/10 11:38:39;;;;;;;1.77;1.37;;;;;;;;;;5052410;28;20385;-80
2024/03/10 11:41:10;;;;;;;4.85;1.48;;;;;;;;;;5053752;28;20393;-81
2024/03/10 11:43:43;;;;;;;1.88;1.70;;;;;;;;;;5052023;28;20388;-81
2024/03/10 11:46:26;;;;;;;2.43;2.23;;;;;;;;;;5047850;28;20445;-80
2024/03/10 11:48:53;;;;;;;3.10;2.80;;;;;;;;;;5054422;28;20546;-80
2024/03/10 11:51:19;;;;;;;3.33;3.00;;;;;;;;;;5053499;28;20378;-80
2024/03/10 11:53:46;;;;;;;5.95;4.05;;;;;;;;;;5053749;28;20377;-80
2024/03/10 11:56:14;;;;;;;4.75;4.35;;;;;;;;;;5054239;28;20384;-80
2024/03/10 11:58:41;;;;;;;4.60;4.10;;;;;;;;;;5053898;28;20461;-80
2024/03/10 12:01:10;;;;;;;5.30;4.70;;;;;;;;;;5050936;28;20432;-80
2024/03/10 12:03:36;;;;;;;5.60;4.57;;;;;;;;;;5051559;28;20382;-81
2024/03/10 12:06:05;;;;;;;5.03;4.63;;;;;;;;;;5053439;28;20382;-80
2024/03/10 12:08:32;;;;;;;5.30;4.80;;;;;;;;;;5053426;28;20397;-80
2024/03/10 12:10:58;;;;;;;6.05;5.45;;;;;;;;;;5056109;28;20385;-80
2024/03/10 12:13:24;;;;;;;6.00;5.18;;;;;;;;;;5057583;28;20385;-80
2024/03/10 12:15:51;;;;;;;5.35;4.85;;;;;;;;;;5057841;28;20373;-80
2024/03/10 12:18:18;;;;;;;5.90;5.40;;;;;;;;;;5056255;28;21176;-80
2024/03/10 12:20:47;;;;;;;5.70;5.20;;;;;;;;;;5057429;28;20838;-80
2024/03/10 12:23:13;;;;;;;5.78;5.28;;;;;;;;;;5055990;28;20420;-80
2024/03/10 12:25:48;;;;;;;6.13;5.28;;;;;;;;;;5058779;28;20384;-80
2024/03/10 12:28:14;;;;;;;5.65;5.15;;;;;;;;;;5054443;28;20889;-80
2024/03/10 12:30:43;;;;;;;5.88;5.35;;;;;;;;;;5054879;28;20843;-81
2024/03/10 12:33:09;;;;;;;5.63;5.13;;;;;;;;;;5058559;28;20771;-81
2024/03/10 12:35:36;;;;;;;6.25;5.50;;;;;;;;;;5056905;28;20399;-81
2024/03/10 12:38:03;;;;;;;5.80;5.20;;;;;;;;;;5057588;28;20502;-81
2024/03/10 12:40:31;;;;;;;5.40;4.90;;;;;;;;;;5057871;28;20401;-81
2024/03/10 12:42:59;;;;;;;6.22;5.63;;;;;;;;;;5057364;28;20385;-81
2024/03/10 12:45:25;;;;;;;6.00;5.40;;;;;;;;;;5056037;28;20484;-81
2024/03/10 12:47:52;;;;;;;6.75;5.20;;;;;;;;;;5058101;28;20476;-81
2024/03/10 12:50:18;;;;;;;5.97;5.38;;;;;;;;;;5057815;28;20413;-81
2024/03/10 12:52:44;;;;;;;5.85;5.22;;;;;;;;;;5057404;28;20693;-81
2024/03/10 12:55:11;;;;;;;5.90;5.38;;;;;;;;;;5057551;28;20389;-81
2024/03/10 12:57:39;;;;;;;5.50;4.95;;;;;;;;;;5057220;28;20384;-81
2024/03/10 13:00:15;;;;;;;5.88;5.38;;;;;;;;;;5054720;28;20460;-81
2024/03/10 13:02:42;;;;;;;5.80;5.30;;;;;;;;;;5044001;28;20427;-80
2024/03/10 13:05:10;;;;;;;5.97;5.38;;;;;;;;;;5057529;28;20953;-82
2024/03/10 13:07:36;;;;;;;6.63;6.03;;;;;;;;;;5056852;28;20409;-83
2024/03/10 13:10:05;;;;;;;6.13;5.63;;;;;;;;;;5056119;28;20385;-82
2024/03/10 13:12:31;;;;;;;6.20;5.70;;;;;;;;;;5055537;28;20396;-82
2024/03/10 13:14:57;;;;;;;6.50;5.80;;;;;;;;;;5056901;28;20385;-83
2024/03/10 13:17:23;;;;;;;6.38;5.78;;;;;;;;;;5057358;28;20423;-83
2024/03/10 13:19:49;;;;;;;6.30;5.70;;;;;;;;;;5056673;28;20751;-82
2024/03/10 13:22:15;;;;;;;6.13;5.53;;;;;;;;;;5053661;28;20471;-83
2024/03/10 13:24:41;;;;;;;6.55;5.88;;;;;;;;;;5054940;28;20848;-82
2024/03/10 13:27:07;;;;;;;6.38;5.53;;;;;;;;;;5057195;28;20412;-83
2024/03/10 13:29:33;;;;;;;5.80;5.20;;;;;;;;;;5056592;28;20392;-82
2024/03/10 13:32:01;;;;;;;6.00;5.40;;;;;;;;;;5057334;28;20413;-82
2024/03/10 13:34:28;;;;;;;6.05;4.65;;;;;;;;;;5055490;28;20396;-83
2024/03/10 13:36:54;;;;;;;5.78;5.18;;;;;;;;;;5055734;28;20389;-83
2024/03/10 13:39:20;;;;;;;5.77;5.20;;;;;;;;;;5056637;28;20397;-82
2024/03/10 13:41:46;;;;;;;6.43;5.82;;;;;;;;;;5057257;28;20421;-82
2024/03/10 13:44:12;;;;;;;5.95;5.43;;;;;;;;;;5056443;28;20412;-82
2024/03/10 13:46:38;;;;;;;6.38;5.72;;;;;;;;;;5057508;28;20409;-82
2024/03/10 13:49:07;;;;;;;7.10;6.40;;;;;;;;;;5059263;28;20402;-81
2024/03/10 13:51:34;;;;;;;6.00;5.40;;;;;;;;;;5061823;28;20804;-84
2024/03/10 13:54:01;;;;;;;6.90;6.20;;;;;;;;;;5059444;28;20380;-82
2024/03/10 13:56:29;;;;;;;6.72;6.03;;;;;;;;;;5057453;28;20431;-80
2024/03/10 13:58:56;;;;;;;5.75;5.25;;;;;;;;;;5056163;28;20413;-81
2024/03/10 14:01:22;;;;;;;6.45;5.85;;;;;;;;;;5057991;28;20388;-80
2024/03/10 14:03:49;;;;;;;6.63;6.00;;;;;;;;;;5056223;28;20382;-80
2024/03/10 14:06:15;;;;;;;6.70;6.13;;;;;;;;;;5055599;28;20385;-81
2024/03/10 14:08:41;;;;;;;6.47;5.72;;;;;;;;;;5054976;28;20416;-80
2024/03/10 14:11:12;;;;;;;6.05;5.55;;;;;;;;;;5055229;28;20386;-81
2024/03/10 14:13:39;;;;;;;6.18;5.57;;;;;;;;;;5055641;28;20392;-81
2024/03/10 14:16:06;;;;;;;5.90;5.30;;;;;;;;;;5055923;28;20374;-81
2024/03/10 14:18:33;;;;;;;6.97;5.53;;;;;;;;;;5055095;28;20385;-80
2024/03/10 14:21:00;;;;;;;7.05;6.05;;;;;;;;;;5054929;28;20747;-80
2024/03/10 14:23:28;;;;;;;6.70;6.10;;;;;;;;;;5055180;28;20389;-80
2024/03/10 14:25:54;;;;;;;8.00;7.30;;;;;;;;;;5054487;28;20634;-79
2024/03/10 14:28:20;;;;;;;6.73;6.13;;;;;;;;;;5054131;28;20409;-80
2024/03/10 14:30:47;;;;;;;6.32;5.72;;;;;;;;;;5053506;28;20739;-80
2024/03/10 14:33:13;;;;;;;6.85;6.25;;;;;;;;;;5053400;28;20378;-80
2024/03/10 14:35:39;;;;;;;5.97;5.47;;;;;;;;;;5053798;28;20754;-80
2024/03/10 14:38:05;;;;;;;6.65;6.00;;;;;;;;;;5053973;28;20724;-80
2024/03/10 14:40:33;;;;;;;6.43;5.63;;;;;;;;;;5053920;28;20436;-80
2024/03/10 14:42:59;;;;;;;6.93;6.22;;;;;;;;;;5053786;28;20400;-81
2024/03/10 14:45:29;;;;;;;6.85;6.25;;;;;;;;;;5053932;28;20389;-80
2024/03/10 14:47:55;;;;;;;6.80;6.10;;;;;;;;;;5053647;28;20948;-80
2024/03/10 14:50:24;;;;;;;6.68;6.05;;;;;;;;;;5053127;28;20432;-80
2024/03/10 14:52:52;;;;;;;6.70;6.10;;;;;;;;;;5054420;28;20835;-80
2024/03/10 14:55:19;;;;;;;7.32;6.72;;;;;;;;;;5052444;28;20394;-80
2024/03/10 14:57:45;;;;;;;7.05;6.40;;;;;;;;;;5044782;28;20464;-80
2024/03/10 15:00:39;;;;;;;6.97;6.38;;;;;;;;;;5053658;28;20464;-80
2024/03/10 15:03:16;;;;;;;7.05;6.45;;;;;;;;;;5053546;28;20382;-80
2024/03/10 15:05:43;;;;;;;8.10;7.30;;;;;;;;;;5053516;28;20378;-80